Green Hill, Rhode Island
Current Conditions -  °F | °C
As of 11:53 AM on Friday 28 Nov 2014 (Local Time) from KWST Reporting Station
Scattered Clouds Scattered Clouds  
Wind Chill: 26°   Ceiling: Unl
Heat Index: 36°   Visibility: 10mi
Dew Point: 22°   Wind: 17mph
Humidity: 57%   Direction: 340°NNW
Pressure: 30.08"   Gusts: 24mph
Location:  41.4261°N, 71.5353°W
Report Text: KWST 281653Z AUTO 34015G21KT 10SM SCT030 02/M06 A3008 RMK AO2 SLP185 T00221056
Loading
Personal Weather Stations






























Interactive Weather Map New forecast layout! Learn more

10-Day Weather Forecast

Advertisements
Track Severe Weather on mobile